sensor_id;sensor_type;location;lat;lon;timestamp;P1;durP1;ratioP1;P2;durP2;ratioP2
495;SDS011;39559;48.630;9.162;2024-03-23T00:55:47;13.18;;;7.20;;
495;SDS011;39559;48.630;9.162;2024-03-23T00:58:13;14.10;;;7.70;;
495;SDS011;39559;48.630;9.162;2024-03-23T01:00:38;13.03;;;7.80;;
495;SDS011;39559;48.630;9.162;2024-03-23T01:03:04;10.10;;;5.50;;
495;SDS011;39559;48.630;9.162;2024-03-23T01:05:30;15.50;;;6.77;;
495;SDS011;39559;48.630;9.162;2024-03-23T01:07:55;9.73;;;5.53;;
495;SDS011;39559;48.630;9.162;2024-03-23T01:10:21;8.20;;;4.83;;
495;SDS011;39559;48.630;9.162;2024-03-23T01:12:46;8.00;;;4.60;;
495;SDS011;39559;48.630;9.162;2024-03-23T01:15:12;11.90;;;5.37;;
495;SDS011;39559;48.630;9.162;2024-03-23T01:19:46;10.45;;;4.97;;
495;SDS011;39559;48.630;9.162;2024-03-23T01:22:11;8.43;;;4.50;;
495;SDS011;39559;48.630;9.162;2024-03-23T01:24:37;7.90;;;4.50;;
495;SDS011;39559;48.630;9.162;2024-03-23T01:27:03;8.37;;;4.63;;
495;SDS011;39559;48.630;9.162;2024-03-23T01:29:29;7.60;;;4.40;;
495;SDS011;39559;48.630;9.162;2024-03-23T01:31:54;8.63;;;4.77;;
495;SDS011;39559;48.630;9.162;2024-03-23T01:34:20;7.20;;;4.37;;
495;SDS011;39559;48.630;9.162;2024-03-23T01:36:46;8.50;;;4.57;;
495;SDS011;39559;48.630;9.162;2024-03-23T01:39:12;10.10;;;5.13;;
495;SDS011;39559;48.630;9.162;2024-03-23T01:43:44;8.18;;;4.75;;
495;SDS011;39559;48.630;9.162;2024-03-23T01:46:10;9.20;;;4.30;;
495;SDS011;39559;48.630;9.162;2024-03-23T01:48:35;7.80;;;4.40;;
495;SDS011;39559;48.630;9.162;2024-03-23T01:51:01;7.90;;;3.93;;
495;SDS011;39559;48.630;9.162;2024-03-23T01:53:27;8.77;;;5.13;;
495;SDS011;39559;48.630;9.162;2024-03-23T01:55:52;8.70;;;4.77;;
495;SDS011;39559;48.630;9.162;2024-03-23T01:58:18;7.90;;;4.75;;
495;SDS011;39559;48.630;9.162;2024-03-23T02:00:44;8.50;;;4.63;;
495;SDS011;39559;48.630;9.162;2024-03-23T02:03:25;7.70;;;4.20;;
495;SDS011;39559;48.630;9.162;2024-03-23T02:07:43;7.47;;;4.35;;
495;SDS011;39559;48.630;9.162;2024-03-23T02:10:09;7.10;;;4.27;;
495;SDS011;39559;48.630;9.162;2024-03-23T02:12:38;7.50;;;4.70;;
495;SDS011;39559;48.630;9.162;2024-03-23T02:15:03;9.00;;;5.07;;
495;SDS011;39559;48.630;9.162;2024-03-23T02:17:30;13.90;;;4.90;;
495;SDS011;39559;48.630;9.162;2024-03-23T02:19:56;8.23;;;4.80;;
495;SDS011;39559;48.630;9.162;2024-03-23T02:22:22;8.53;;;4.60;;
495;SDS011;39559;48.630;9.162;2024-03-23T02:24:47;7.57;;;4.53;;
495;SDS011;39559;48.630;9.162;2024-03-23T02:27:13;8.33;;;4.60;;
495;SDS011;39559;48.630;9.162;2024-03-23T02:31:43;8.73;;;5.00;;
495;SDS011;39559;48.630;9.162;2024-03-23T02:34:08;7.10;;;4.37;;
495;SDS011;39559;48.630;9.162;2024-03-23T02:36:34;8.87;;;4.60;;
495;SDS011;39559;48.630;9.162;2024-03-23T02:38:59;7.50;;;4.40;;
495;SDS011;39559;48.630;9.162;2024-03-23T02:41:25;7.10;;;3.97;;
495;SDS011;39559;48.630;9.162;2024-03-23T02:43:50;8.90;;;4.60;;
495;SDS011;39559;48.630;9.162;2024-03-23T02:46:16;7.30;;;4.20;;
495;SDS011;39559;48.630;9.162;2024-03-23T02:48:41;7.47;;;4.37;;
495;SDS011;39559;48.630;9.162;2024-03-23T02:51:07;8.75;;;4.22;;
495;SDS011;39559;48.630;9.162;2024-03-23T02:55:40;8.77;;;4.32;;
495;SDS011;39559;48.630;9.162;2024-03-23T02:58:05;7.30;;;4.10;;
495;SDS011;39559;48.630;9.162;2024-03-23T03:00:31;8.13;;;4.30;;
495;SDS011;39559;48.630;9.162;2024-03-23T03:02:56;7.70;;;4.70;;
495;SDS011;39559;48.630;9.162;2024-03-23T03:05:22;7.67;;;4.70;;
495;SDS011;39559;48.630;9.162;2024-03-23T03:07:48;8.00;;;4.50;;
495;SDS011;39559;48.630;9.162;2024-03-23T03:10:13;7.73;;;4.57;;
495;SDS011;39559;48.630;9.162;2024-03-23T03:12:39;7.90;;;4.30;;
495;SDS011;39559;48.630;9.162;2024-03-23T03:15:05;7.22;;;4.20;;
495;SDS011;39559;48.630;9.162;2024-03-23T03:19:38;7.35;;;3.90;;
495;SDS011;39559;48.630;9.162;2024-03-23T03:22:03;6.60;;;3.90;;
495;SDS011;39559;48.630;9.162;2024-03-23T03:24:29;11.53;;;4.50;;
495;SDS011;39559;48.630;9.162;2024-03-23T03:26:55;8.73;;;4.70;;
495;SDS011;39559;48.630;9.162;2024-03-23T03:29:21;10.10;;;4.32;;
495;SDS011;39559;48.630;9.162;2024-03-23T03:31:46;7.60;;;4.70;;
495;SDS011;39559;48.630;9.162;2024-03-23T03:34:12;7.93;;;4.40;;
495;SDS011;39559;48.630;9.162;2024-03-23T03:36:37;7.60;;;4.10;;
495;SDS011;39559;48.630;9.162;2024-03-23T03:39:03;6.83;;;3.87;;
495;SDS011;39559;48.630;9.162;2024-03-23T03:43:36;7.20;;;4.50;;
495;SDS011;39559;48.630;9.162;2024-03-23T03:46:01;7.50;;;3.97;;
495;SDS011;39559;48.630;9.162;2024-03-23T03:48:28;8.80;;;4.60;;
495;SDS011;39559;48.630;9.162;2024-03-23T03:50:53;7.15;;;4.20;;
495;SDS011;39559;48.630;9.162;2024-03-23T03:53:19;9.07;;;4.83;;
495;SDS011;39559;48.630;9.162;2024-03-23T03:55:45;7.83;;;4.30;;
495;SDS011;39559;48.630;9.162;2024-03-23T03:58:10;7.37;;;4.27;;
495;SDS011;39559;48.630;9.162;2024-03-23T04:00:36;9.50;;;4.00;;
495;SDS011;39559;48.630;9.162;2024-03-23T04:03:02;8.13;;;4.50;;
495;SDS011;39559;48.630;9.162;2024-03-23T04:07:35;6.93;;;4.18;;
495;SDS011;39559;48.630;9.162;2024-03-23T04:10:00;8.00;;;4.80;;
495;SDS011;39559;48.630;9.162;2024-03-23T04:12:26;12.20;;;4.33;;
495;SDS011;39559;48.630;9.162;2024-03-23T04:14:51;8.70;;;4.90;;
495;SDS011;39559;48.630;9.162;2024-03-23T04:17:17;8.20;;;4.47;;
495;SDS011;39559;48.630;9.162;2024-03-23T04:19:43;7.50;;;4.10;;
495;SDS011;39559;48.630;9.162;2024-03-23T04:22:09;8.20;;;4.20;;
495;SDS011;39559;48.630;9.162;2024-03-23T04:24:35;7.77;;;4.90;;
495;SDS011;39559;48.630;9.162;2024-03-23T04:27:00;8.07;;;4.33;;
495;SDS011;39559;48.630;9.162;2024-03-23T04:31:33;8.70;;;5.00;;
495;SDS011;39559;48.630;9.162;2024-03-23T04:34:00;8.95;;;4.85;;
495;SDS011;39559;48.630;9.162;2024-03-23T04:36:26;7.65;;;4.60;;
495;SDS011;39559;48.630;9.162;2024-03-23T04:38:52;8.03;;;4.37;;
495;SDS011;39559;48.630;9.162;2024-03-23T04:41:17;8.23;;;4.80;;
495;SDS011;39559;48.630;9.162;2024-03-23T04:43:43;8.20;;;4.40;;
495;SDS011;39559;48.630;9.162;2024-03-23T04:46:09;9.87;;;4.47;;
495;SDS011;39559;48.630;9.162;2024-03-23T04:48:34;7.63;;;4.20;;
495;SDS011;39559;48.630;9.162;2024-03-23T04:51:00;8.50;;;4.70;;
495;SDS011;39559;48.630;9.162;2024-03-23T04:55:31;9.27;;;4.60;;
495;SDS011;39559;48.630;9.162;2024-03-23T04:57:57;9.50;;;4.97;;
495;SDS011;39559;48.630;9.162;2024-03-23T05:00:22;9.57;;;6.17;;
495;SDS011;39559;48.630;9.162;2024-03-23T05:02:48;10.73;;;6.13;;
495;SDS011;39559;48.630;9.162;2024-03-23T05:05:14;9.83;;;6.13;;
495;SDS011;39559;48.630;9.162;2024-03-23T05:07:39;10.90;;;6.17;;
495;SDS011;39559;48.630;9.162;2024-03-23T05:10:07;10.15;;;6.20;;
495;SDS011;39559;48.630;9.162;2024-03-23T05:12:36;12.23;;;6.65;;
495;SDS011;39559;48.630;9.162;2024-03-23T05:15:04;9.45;;;5.63;;
495;SDS011;39559;48.630;9.162;2024-03-23T05:19:29;14.30;;;6.38;;
495;SDS011;39559;48.630;9.162;2024-03-23T05:21:55;12.33;;;7.10;;
495;SDS011;39559;48.630;9.162;2024-03-23T05:24:20;12.37;;;6.80;;
495;SDS011;39559;48.630;9.162;2024-03-23T05:26:46;11.33;;;6.70;;
495;SDS011;39559;48.630;9.162;2024-03-23T05:29:11;10.00;;;6.13;;
495;SDS011;39559;48.630;9.162;2024-03-23T05:31:38;10.98;;;6.82;;
495;SDS011;39559;48.630;9.162;2024-03-23T05:34:06;11.57;;;6.65;;
495;SDS011;39559;48.630;9.162;2024-03-23T05:36:32;11.77;;;7.20;;
495;SDS011;39559;48.630;9.162;2024-03-23T05:38:57;12.90;;;7.43;;
495;SDS011;39559;48.630;9.162;2024-03-23T05:43:28;12.68;;;8.02;;
495;SDS011;39559;48.630;9.162;2024-03-23T05:45:54;10.97;;;8.23;;
495;SDS011;39559;48.630;9.162;2024-03-23T05:48:20;14.52;;;8.32;;
495;SDS011;39559;48.630;9.162;2024-03-23T05:50:47;14.10;;;8.63;;
495;SDS011;39559;48.630;9.162;2024-03-23T05:53:14;15.38;;;9.75;;
495;SDS011;39559;48.630;9.162;2024-03-23T05:55:41;15.05;;;9.15;;
495;SDS011;39559;48.630;9.162;2024-03-23T05:58:06;14.53;;;8.37;;
495;SDS011;39559;48.630;9.162;2024-03-23T06:00:32;14.17;;;8.50;;
495;SDS011;39559;48.630;9.162;2024-03-23T06:02:57;14.50;;;8.70;;
495;SDS011;39559;48.630;9.162;2024-03-23T06:07:26;15.02;;;8.35;;
495;SDS011;39559;48.630;9.162;2024-03-23T06:09:52;14.80;;;8.70;;
495;SDS011;39559;48.630;9.162;2024-03-23T06:12:17;15.57;;;9.03;;
495;SDS011;39559;48.630;9.162;2024-03-23T06:14:43;13.30;;;7.60;;
495;SDS011;39559;48.630;9.162;2024-03-23T06:17:08;11.63;;;7.10;;
495;SDS011;39559;48.630;9.162;2024-03-23T06:19:34;11.80;;;6.07;;
495;SDS011;39559;48.630;9.162;2024-03-23T06:22:00;12.23;;;6.90;;
495;SDS011;39559;48.630;9.162;2024-03-23T06:24:25;15.00;;;7.37;;
495;SDS011;39559;48.630;9.162;2024-03-23T06:26:51;11.43;;;6.17;;
495;SDS011;39559;48.630;9.162;2024-03-23T06:31:24;9.60;;;4.85;;
495;SDS011;39559;48.630;9.162;2024-03-23T06:33:50;7.90;;;3.90;;
495;SDS011;39559;48.630;9.162;2024-03-23T06:36:15;8.87;;;4.40;;
495;SDS011;39559;48.630;9.162;2024-03-23T06:38:41;7.90;;;3.53;;
495;SDS011;39559;48.630;9.162;2024-03-23T06:41:06;8.13;;;3.13;;
495;SDS011;39559;48.630;9.162;2024-03-23T06:43:33;6.35;;;3.03;;
495;SDS011;39559;48.630;9.162;2024-03-23T06:45:58;6.07;;;2.70;;
495;SDS011;39559;48.630;9.162;2024-03-23T06:48:24;7.40;;;2.73;;
495;SDS011;39559;48.630;9.162;2024-03-23T06:50:54;6.20;;;2.70;;
495;SDS011;39559;48.630;9.162;2024-03-23T06:55:22;5.50;;;2.50;;
495;SDS011;39559;48.630;9.162;2024-03-23T06:57:50;6.38;;;2.97;;
495;SDS011;39559;48.630;9.162;2024-03-23T07:00:15;5.80;;;2.60;;
495;SDS011;39559;48.630;9.162;2024-03-23T07:02:41;5.47;;;2.40;;
495;SDS011;39559;48.630;9.162;2024-03-23T07:05:06;6.10;;;3.03;;
495;SDS011;39559;48.630;9.162;2024-03-23T07:07:32;5.53;;;2.43;;
495;SDS011;39559;48.630;9.162;2024-03-23T07:09:58;6.00;;;2.53;;
495;SDS011;39559;48.630;9.162;2024-03-23T07:12:23;5.80;;;2.70;;
495;SDS011;39559;48.630;9.162;2024-03-23T07:14:49;5.53;;;2.30;;
495;SDS011;39559;48.630;9.162;2024-03-23T07:19:19;5.95;;;2.45;;
495;SDS011;39559;48.630;9.162;2024-03-23T07:21:46;5.10;;;2.20;;
495;SDS011;39559;48.630;9.162;2024-03-23T07:24:13;5.40;;;2.00;;
495;SDS011;39559;48.630;9.162;2024-03-23T07:26:40;5.40;;;2.20;;
495;SDS011;39559;48.630;9.162;2024-03-23T07:29:07;5.40;;;2.13;;
495;SDS011;39559;48.630;9.162;2024-03-23T07:31:34;5.10;;;2.00;;
495;SDS011;39559;48.630;9.162;2024-03-23T07:34:00;5.53;;;2.10;;
495;SDS011;39559;48.630;9.162;2024-03-23T07:36:27;5.00;;;2.00;;
495;SDS011;39559;48.630;9.162;2024-03-23T07:38:53;5.10;;;2.03;;
495;SDS011;39559;48.630;9.162;2024-03-23T07:43:19;4.90;;;2.00;;
495;SDS011;39559;48.630;9.162;2024-03-23T07:45:50;5.20;;;1.93;;
495;SDS011;39559;48.630;9.162;2024-03-23T07:48:17;5.10;;;1.90;;
495;SDS011;39559;48.630;9.162;2024-03-23T07:50:43;4.90;;;1.77;;
495;SDS011;39559;48.630;9.162;2024-03-23T07:53:08;5.30;;;2.20;;
495;SDS011;39559;48.630;9.162;2024-03-23T07:55:34;5.30;;;1.97;;
495;SDS011;39559;48.630;9.162;2024-03-23T07:57:59;5.53;;;1.90;;
495;SDS011;39559;48.630;9.162;2024-03-23T08:00:25;4.87;;;1.80;;
495;SDS011;39559;48.630;9.162;2024-03-23T08:02:51;5.83;;;2.00;;
495;SDS011;39559;48.630;9.162;2024-03-23T08:07:18;5.00;;;2.00;;
495;SDS011;39559;48.630;9.162;2024-03-23T08:09:44;4.80;;;1.60;;
495;SDS011;39559;48.630;9.162;2024-03-23T08:12:09;4.93;;;1.83;;
495;SDS011;39559;48.630;9.162;2024-03-23T08:14:35;5.10;;;1.97;;
495;SDS011;39559;48.630;9.162;2024-03-23T08:17:00;5.30;;;2.00;;
495;SDS011;39559;48.630;9.162;2024-03-23T08:19:26;5.70;;;2.20;;
495;SDS011;39559;48.630;9.162;2024-03-23T08:21:51;4.90;;;1.83;;
495;SDS011;39559;48.630;9.162;2024-03-23T08:24:17;5.10;;;1.80;;
495;SDS011;39559;48.630;9.162;2024-03-23T08:26:42;4.90;;;1.97;;
495;SDS011;39559;48.630;9.162;2024-03-23T08:31:16;7.25;;;2.08;;
495;SDS011;39559;48.630;9.162;2024-03-23T08:33:41;4.97;;;2.00;;
495;SDS011;39559;48.630;9.162;2024-03-23T08:36:10;5.25;;;2.03;;
495;SDS011;39559;48.630;9.162;2024-03-23T08:38:39;5.80;;;2.30;;
495;SDS011;39559;48.630;9.162;2024-03-23T08:41:06;5.40;;;2.10;;
495;SDS011;39559;48.630;9.162;2024-03-23T08:43:36;6.45;;;2.40;;
495;SDS011;39559;48.630;9.162;2024-03-23T08:46:13;5.40;;;2.22;;
495;SDS011;39559;48.630;9.162;2024-03-23T08:48:46;5.20;;;2.40;;
495;SDS011;39559;48.630;9.162;2024-03-23T08:51:14;7.03;;;2.92;;
495;SDS011;39559;48.630;9.162;2024-03-23T08:55:14;8.63;;;2.85;;
495;SDS011;39559;48.630;9.162;2024-03-23T08:57:39;9.20;;;2.80;;
495;SDS011;39559;48.630;9.162;2024-03-23T09:00:05;6.93;;;2.60;;
495;SDS011;39559;48.630;9.162;2024-03-23T09:02:39;5.40;;;2.40;;
495;SDS011;39559;48.630;9.162;2024-03-23T09:05:04;6.70;;;2.70;;
495;SDS011;39559;48.630;9.162;2024-03-23T09:07:31;5.47;;;2.50;;
495;SDS011;39559;48.630;9.162;2024-03-23T09:09:56;6.65;;;2.65;;
495;SDS011;39559;48.630;9.162;2024-03-23T09:12:22;6.73;;;3.13;;
495;SDS011;39559;48.630;9.162;2024-03-23T09:14:48;7.80;;;3.87;;
495;SDS011;39559;48.630;9.162;2024-03-23T09:19:12;8.63;;;3.53;;
495;SDS011;39559;48.630;9.162;2024-03-23T09:21:38;7.17;;;3.43;;
495;SDS011;39559;48.630;9.162;2024-03-23T09:24:06;6.72;;;3.10;;
495;SDS011;39559;48.630;9.162;2024-03-23T09:26:33;7.80;;;3.75;;
495;SDS011;39559;48.630;9.162;2024-03-23T09:29:01;6.90;;;3.47;;
495;SDS011;39559;48.630;9.162;2024-03-23T09:31:29;7.22;;;3.85;;
495;SDS011;39559;48.630;9.162;2024-03-23T09:33:57;7.80;;;4.05;;
495;SDS011;39559;48.630;9.162;2024-03-23T09:36:24;7.38;;;3.63;;
495;SDS011;39559;48.630;9.162;2024-03-23T09:38:51;8.23;;;3.75;;
495;SDS011;39559;48.630;9.162;2024-03-23T09:43:12;9.88;;;4.05;;
495;SDS011;39559;48.630;9.162;2024-03-23T09:45:40;7.70;;;4.03;;
495;SDS011;39559;48.630;9.162;2024-03-23T09:48:08;9.77;;;4.30;;
495;SDS011;39559;48.630;9.162;2024-03-23T09:50:42;8.50;;;4.50;;
495;SDS011;39559;48.630;9.162;2024-03-23T09:53:14;8.82;;;4.32;;
495;SDS011;39559;48.630;9.162;2024-03-23T09:55:42;9.15;;;5.00;;
495;SDS011;39559;48.630;9.162;2024-03-23T09:58:14;7.50;;;4.25;;
495;SDS011;39559;48.630;9.162;2024-03-23T10:00:42;10.15;;;4.68;;
495;SDS011;39559;48.630;9.162;2024-03-23T10:03:11;8.50;;;4.68;;
495;SDS011;39559;48.630;9.162;2024-03-23T10:07:17;8.35;;;4.25;;
495;SDS011;39559;48.630;9.162;2024-03-23T10:09:45;9.02;;;5.05;;
495;SDS011;39559;48.630;9.162;2024-03-23T10:12:14;9.88;;;4.68;;
495;SDS011;39559;48.630;9.162;2024-03-23T10:14:41;10.18;;;4.75;;
495;SDS011;39559;48.630;9.162;2024-03-23T10:17:12;8.68;;;4.55;;
495;SDS011;39559;48.630;9.162;2024-03-23T10:19:45;11.73;;;4.75;;
495;SDS011;39559;48.630;9.162;2024-03-23T10:22:17;9.80;;;4.78;;
495;SDS011;39559;48.630;9.162;2024-03-23T10:24:45;9.23;;;4.75;;
495;SDS011;39559;48.630;9.162;2024-03-23T10:27:17;11.80;;;4.55;;
495;SDS011;39559;48.630;9.162;2024-03-23T10:31:11;10.40;;;4.60;;
495;SDS011;39559;48.630;9.162;2024-03-23T10:33:45;8.60;;;4.70;;
495;SDS011;39559;48.630;9.162;2024-03-23T10:36:15;8.18;;;4.75;;
495;SDS011;39559;48.630;9.162;2024-03-23T10:38:43;12.07;;;5.10;;
495;SDS011;39559;48.630;9.162;2024-03-23T10:41:11;10.15;;;4.85;;
495;SDS011;39559;48.630;9.162;2024-03-23T10:43:42;11.07;;;5.03;;
495;SDS011;39559;48.630;9.162;2024-03-23T10:46:10;14.40;;;5.45;;
495;SDS011;39559;48.630;9.162;2024-03-23T10:48:37;7.75;;;4.28;;
495;SDS011;39559;48.630;9.162;2024-03-23T10:51:20;11.15;;;5.57;;
495;SDS011;39559;48.630;9.162;2024-03-23T10:55:05;9.00;;;4.00;;
495;SDS011;39559;48.630;9.162;2024-03-23T10:57:34;10.60;;;2.85;;
495;SDS011;39559;48.630;9.162;2024-03-23T11:00:09;6.90;;;3.00;;
495;SDS011;39559;48.630;9.162;2024-03-23T11:02:37;5.50;;;2.50;;
495;SDS011;39559;48.630;9.162;2024-03-23T11:05:20;7.23;;;2.80;;
495;SDS011;39559;48.630;9.162;2024-03-23T11:07:51;5.70;;;2.35;;
495;SDS011;39559;48.630;9.162;2024-03-23T11:12:52;6.00;;;2.70;;
495;SDS011;39559;48.630;9.162;2024-03-23T11:15:18;6.93;;;3.20;;
495;SDS011;39559;48.630;9.162;2024-03-23T11:21:58;8.95;;;2.92;;
495;SDS011;39559;48.630;9.162;2024-03-23T11:24:24;7.53;;;3.80;;
495;SDS011;39559;48.630;9.162;2024-03-23T11:26:49;7.13;;;3.03;;
495;SDS011;39559;48.630;9.162;2024-03-23T11:29:16;7.43;;;3.10;;
495;SDS011;39559;48.630;9.162;2024-03-23T11:31:46;7.75;;;3.22;;
495;SDS011;39559;48.630;9.162;2024-03-23T11:34:17;9.45;;;3.67;;
495;SDS011;39559;48.630;9.162;2024-03-23T11:36:44;7.88;;;3.30;;
495;SDS011;39559;48.630;9.162;2024-03-23T11:39:14;6.25;;;3.15;;
495;SDS011;39559;48.630;9.162;2024-03-23T11:43:05;9.93;;;3.45;;
495;SDS011;39559;48.630;9.162;2024-03-23T11:45:38;10.43;;;3.97;;
495;SDS011;39559;48.630;9.162;2024-03-23T11:48:18;7.20;;;3.47;;
495;SDS011;39559;48.630;9.162;2024-03-23T11:50:46;7.13;;;3.10;;
495;SDS011;39559;48.630;9.162;2024-03-23T11:53:19;8.93;;;3.83;;
495;SDS011;39559;48.630;9.162;2024-03-23T11:55:52;9.07;;;3.90;;
495;SDS011;39559;48.630;9.162;2024-03-23T11:58:19;9.32;;;3.80;;
495;SDS011;39559;48.630;9.162;2024-03-23T12:00:50;11.13;;;3.20;;
495;SDS011;39559;48.630;9.162;2024-03-23T12:03:23;7.85;;;3.40;;
495;SDS011;39559;48.630;9.162;2024-03-23T12:10:06;7.82;;;3.22;;
495;SDS011;39559;48.630;9.162;2024-03-23T12:13:00;6.43;;;3.25;;
495;SDS011;39559;48.630;9.162;2024-03-23T12:15:27;8.95;;;3.22;;
495;SDS011;39559;48.630;9.162;2024-03-23T12:18:15;7.75;;;3.25;;
495;SDS011;39559;48.630;9.162;2024-03-23T12:20:47;9.00;;;3.25;;
495;SDS011;39559;48.630;9.162;2024-03-23T12:23:14;7.70;;;3.85;;
495;SDS011;39559;48.630;9.162;2024-03-23T12:25:41;9.77;;;3.60;;
495;SDS011;39559;48.630;9.162;2024-03-23T12:28:08;6.85;;;3.28;;
495;SDS011;39559;48.630;9.162;2024-03-23T12:30:59;9.48;;;3.80;;
495;SDS011;39559;48.630;9.162;2024-03-23T12:33:26;6.63;;;3.00;;
495;SDS011;39559;48.630;9.162;2024-03-23T12:35:53;7.95;;;3.70;;
495;SDS011;39559;48.630;9.162;2024-03-23T12:38:19;6.50;;;3.50;;
495;SDS011;39559;48.630;9.162;2024-03-23T12:40:48;8.50;;;3.90;;
495;SDS011;39559;48.630;9.162;2024-03-23T12:43:14;7.65;;;3.50;;
495;SDS011;39559;48.630;9.162;2024-03-23T12:45:41;9.35;;;4.10;;
495;SDS011;39559;48.630;9.162;2024-03-23T12:48:11;10.45;;;3.85;;
495;SDS011;39559;48.630;9.162;2024-03-23T12:50:37;8.00;;;4.50;;
495;SDS011;39559;48.630;9.162;2024-03-23T12:54:57;9.55;;;4.30;;
495;SDS011;39559;48.630;9.162;2024-03-23T12:57:24;10.57;;;4.35;;
495;SDS011;39559;48.630;9.162;2024-03-23T12:59:52;9.73;;;4.28;;
495;SDS011;39559;48.630;9.162;2024-03-23T13:02:20;7.70;;;4.30;;
495;SDS011;39559;48.630;9.162;2024-03-23T13:04:50;8.90;;;4.47;;
495;SDS011;39559;48.630;9.162;2024-03-23T13:07:21;9.77;;;4.47;;
495;SDS011;39559;48.630;9.162;2024-03-23T13:09:52;8.70;;;4.28;;
495;SDS011;39559;48.630;9.162;2024-03-23T13:12:19;9.57;;;4.63;;
495;SDS011;39559;48.630;9.162;2024-03-23T13:14:45;8.40;;;4.55;;
495;SDS011;39559;48.630;9.162;2024-03-23T13:19:08;8.27;;;3.92;;
495;SDS011;39559;48.630;9.162;2024-03-23T13:21:34;9.68;;;4.97;;
495;SDS011;39559;48.630;9.162;2024-03-23T13:24:01;7.03;;;3.40;;
495;SDS011;39559;48.630;9.162;2024-03-23T13:26:29;6.32;;;2.75;;
495;SDS011;39559;48.630;9.162;2024-03-23T13:28:55;6.80;;;2.65;;
495;SDS011;39559;48.630;9.162;2024-03-23T13:31:22;6.10;;;2.83;;
495;SDS011;39559;48.630;9.162;2024-03-23T13:33:49;6.78;;;2.60;;
495;SDS011;39559;48.630;9.162;2024-03-23T13:36:15;7.30;;;2.58;;
495;SDS011;39559;48.630;9.162;2024-03-23T13:38:42;6.22;;;2.60;;
495;SDS011;39559;48.630;9.162;2024-03-23T13:42:53;5.72;;;2.70;;
495;SDS011;39559;48.630;9.162;2024-03-23T13:45:19;8.60;;;2.80;;
495;SDS011;39559;48.630;9.162;2024-03-23T13:47:46;5.90;;;2.70;;
495;SDS011;39559;48.630;9.162;2024-03-23T13:50:12;8.20;;;2.50;;
495;SDS011;39559;48.630;9.162;2024-03-23T13:52:38;6.15;;;2.80;;
495;SDS011;39559;48.630;9.162;2024-03-23T13:55:06;5.40;;;2.60;;
495;SDS011;39559;48.630;9.162;2024-03-23T13:57:34;5.25;;;2.65;;
495;SDS011;39559;48.630;9.162;2024-03-23T13:59:59;6.10;;;2.60;;
495;SDS011;39559;48.630;9.162;2024-03-23T14:02:25;6.40;;;2.90;;
495;SDS011;39559;48.630;9.162;2024-03-23T14:06:52;6.10;;;3.00;;
495;SDS011;39559;48.630;9.162;2024-03-23T14:09:18;7.05;;;3.00;;
495;SDS011;39559;48.630;9.162;2024-03-23T14:11:48;6.40;;;3.53;;
495;SDS011;39559;48.630;9.162;2024-03-23T14:17:18;8.13;;;3.55;;
495;SDS011;39559;48.630;9.162;2024-03-23T14:19:45;7.00;;;3.00;;
495;SDS011;39559;48.630;9.162;2024-03-23T14:22:12;6.68;;;2.70;;
495;SDS011;39559;48.630;9.162;2024-03-23T14:24:38;6.22;;;3.00;;
495;SDS011;39559;48.630;9.162;2024-03-23T14:27:05;7.40;;;3.70;;
495;SDS011;39559;48.630;9.162;2024-03-23T14:30:48;6.13;;;3.03;;
495;SDS011;39559;48.630;9.162;2024-03-23T14:33:16;8.60;;;3.05;;
495;SDS011;39559;48.630;9.162;2024-03-23T14:35:51;6.95;;;3.08;;
495;SDS011;39559;48.630;9.162;2024-03-23T14:38:23;5.70;;;2.95;;
495;SDS011;39559;48.630;9.162;2024-03-23T14:40:50;9.13;;;3.70;;
495;SDS011;39559;48.630;9.162;2024-03-23T14:43:22;7.05;;;3.70;;
495;SDS011;39559;48.630;9.162;2024-03-23T14:46:10;7.13;;;3.35;;
495;SDS011;39559;48.630;9.162;2024-03-23T14:48:37;10.68;;;3.05;;
495;SDS011;39559;48.630;9.162;2024-03-23T14:51:05;7.38;;;3.08;;
495;SDS011;39559;48.630;9.162;2024-03-23T14:54:47;6.45;;;2.80;;
495;SDS011;39559;48.630;9.162;2024-03-23T15:00:08;7.20;;;2.78;;
495;SDS011;39559;48.630;9.162;2024-03-23T15:02:39;5.60;;;2.45;;
495;SDS011;39559;48.630;9.162;2024-03-23T15:05:06;5.75;;;2.30;;
495;SDS011;39559;48.630;9.162;2024-03-23T15:07:37;7.88;;;2.80;;
495;SDS011;39559;48.630;9.162;2024-03-23T15:10:04;6.10;;;2.50;;
495;SDS011;39559;48.630;9.162;2024-03-23T15:12:32;8.13;;;2.90;;
495;SDS011;39559;48.630;9.162;2024-03-23T15:14:59;5.65;;;2.45;;
495;SDS011;39559;48.630;9.162;2024-03-23T15:18:50;5.35;;;2.38;;
495;SDS011;39559;48.630;9.162;2024-03-23T15:21:16;6.17;;;2.47;;
495;SDS011;39559;48.630;9.162;2024-03-23T15:23:49;7.93;;;2.65;;
495;SDS011;39559;48.630;9.162;2024-03-23T15:26:16;6.82;;;3.05;;
495;SDS011;39559;48.630;9.162;2024-03-23T15:28:43;6.25;;;2.60;;
495;SDS011;39559;48.630;9.162;2024-03-23T15:31:20;6.90;;;2.30;;
495;SDS011;39559;48.630;9.162;2024-03-23T15:33:47;7.18;;;2.60;;
495;SDS011;39559;48.630;9.162;2024-03-23T15:36:14;8.82;;;2.72;;
495;SDS011;39559;48.630;9.162;2024-03-23T15:38:40;5.90;;;2.58;;
495;SDS011;39559;48.630;9.162;2024-03-23T15:42:45;5.95;;;2.50;;
495;SDS011;39559;48.630;9.162;2024-03-23T15:45:12;6.40;;;3.20;;
495;SDS011;39559;48.630;9.162;2024-03-23T15:47:38;8.63;;;2.70;;
495;SDS011;39559;48.630;9.162;2024-03-23T15:50:04;9.63;;;3.20;;
495;SDS011;39559;48.630;9.162;2024-03-23T15:52:37;7.85;;;2.42;;
495;SDS011;39559;48.630;9.162;2024-03-23T15:55:06;8.15;;;2.70;;
495;SDS011;39559;48.630;9.162;2024-03-23T15:57:33;6.75;;;2.47;;
495;SDS011;39559;48.630;9.162;2024-03-23T16:00:01;6.82;;;2.78;;
495;SDS011;39559;48.630;9.162;2024-03-23T16:02:29;9.52;;;2.60;;
495;SDS011;39559;48.630;9.162;2024-03-23T16:06:43;6.13;;;2.55;;
495;SDS011;39559;48.630;9.162;2024-03-23T16:09:10;5.70;;;2.50;;
495;SDS011;39559;48.630;9.162;2024-03-23T16:11:37;6.05;;;2.67;;
495;SDS011;39559;48.630;9.162;2024-03-23T16:14:04;7.25;;;2.95;;
495;SDS011;39559;48.630;9.162;2024-03-23T16:16:31;6.65;;;2.78;;
495;SDS011;39559;48.630;9.162;2024-03-23T16:18:58;8.30;;;3.28;;
495;SDS011;39559;48.630;9.162;2024-03-23T16:21:25;6.22;;;2.50;;
495;SDS011;39559;48.630;9.162;2024-03-23T16:23:52;6.00;;;2.80;;
495;SDS011;39559;48.630;9.162;2024-03-23T16:26:18;6.82;;;2.40;;
495;SDS011;39559;48.630;9.162;2024-03-23T16:30:41;5.63;;;2.40;;
495;SDS011;39559;48.630;9.162;2024-03-23T16:33:08;6.28;;;2.60;;
495;SDS011;39559;48.630;9.162;2024-03-23T16:35:35;6.22;;;2.72;;
495;SDS011;39559;48.630;9.162;2024-03-23T16:38:01;5.63;;;2.38;;
495;SDS011;39559;48.630;9.162;2024-03-23T16:40:28;6.55;;;2.50;;
495;SDS011;39559;48.630;9.162;2024-03-23T16:42:55;6.82;;;2.72;;
495;SDS011;39559;48.630;9.162;2024-03-23T16:45:21;5.30;;;2.30;;
495;SDS011;39559;48.630;9.162;2024-03-23T16:47:48;5.72;;;2.65;;
495;SDS011;39559;48.630;9.162;2024-03-23T16:50:15;5.82;;;2.22;;
495;SDS011;39559;48.630;9.162;2024-03-23T16:54:37;5.10;;;2.10;;
495;SDS011;39559;48.630;9.162;2024-03-23T16:57:03;5.50;;;2.20;;
495;SDS011;39559;48.630;9.162;2024-03-23T16:59:29;7.90;;;2.50;;
495;SDS011;39559;48.630;9.162;2024-03-23T17:01:55;5.57;;;2.43;;
495;SDS011;39559;48.630;9.162;2024-03-23T17:04:22;5.88;;;2.50;;
495;SDS011;39559;48.630;9.162;2024-03-23T17:06:49;5.53;;;2.40;;
495;SDS011;39559;48.630;9.162;2024-03-23T17:09:16;6.43;;;2.90;;
495;SDS011;39559;48.630;9.162;2024-03-23T17:11:43;5.60;;;2.17;;
495;SDS011;39559;48.630;9.162;2024-03-23T17:14:11;6.47;;;2.10;;
495;SDS011;39559;48.630;9.162;2024-03-23T17:18:38;6.32;;;2.90;;
495;SDS011;39559;48.630;9.162;2024-03-23T17:21:05;6.70;;;2.63;;
495;SDS011;39559;48.630;9.162;2024-03-23T17:23:31;6.47;;;2.75;;
495;SDS011;39559;48.630;9.162;2024-03-23T17:25:57;6.87;;;2.60;;
495;SDS011;39559;48.630;9.162;2024-03-23T17:28:28;7.55;;;3.13;;
495;SDS011;39559;48.630;9.162;2024-03-23T17:30:54;6.80;;;2.40;;
495;SDS011;39559;48.630;9.162;2024-03-23T17:33:20;8.40;;;4.07;;
495;SDS011;39559;48.630;9.162;2024-03-23T17:35:48;9.38;;;3.30;;